sensor_id;sensor_type;location;lat;lon;timestamp;P1;durP1;ratioP1;P2;durP2;ratioP2
53835;SDS011;39737;43.334;21.936;2023-02-24T00:00:26;17.38;;;8.43;;
53835;SDS011;39737;43.334;21.936;2023-02-24T00:03:22;3.42;;;2.25;;
53835;SDS011;39737;43.334;21.936;2023-02-24T00:06:09;1.40;;;1.40;;
53835;SDS011;39737;43.334;21.936;2023-02-24T00:08:56;2.97;;;1.63;;
53835;SDS011;39737;43.334;21.936;2023-02-24T00:11:47;2.80;;;2.55;;
53835;SDS011;39737;43.334;21.936;2023-02-24T00:14:34;2.65;;;1.30;;
53835;SDS011;39737;43.334;21.936;2023-02-24T00:17:20;21.17;;;8.90;;
53835;SDS011;39737;43.334;21.936;2023-02-24T00:20:09;2.13;;;1.05;;
53835;SDS011;39737;43.334;21.936;2023-02-24T00:22:59;3.97;;;1.80;;
53835;SDS011;39737;43.334;21.936;2023-02-24T00:25:45;19.90;;;8.70;;
53835;SDS011;39737;43.334;21.936;2023-02-24T00:28:32;2.08;;;1.15;;
53835;SDS011;39737;43.334;21.936;2023-02-24T00:31:19;15.55;;;8.57;;
53835;SDS011;39737;43.334;21.936;2023-02-24T00:34:06;1.95;;;0.98;;
53835;SDS011;39737;43.334;21.936;2023-02-24T00:36:52;1.60;;;1.50;;
53835;SDS011;39737;43.334;21.936;2023-02-24T00:39:39;17.75;;;9.15;;
53835;SDS011;39737;43.334;21.936;2023-02-24T00:42:27;19.48;;;9.13;;
53835;SDS011;39737;43.334;21.936;2023-02-24T00:45:14;3.67;;;1.55;;
53835;SDS011;39737;43.334;21.936;2023-02-24T00:48:01;17.20;;;9.35;;
53835;SDS011;39737;43.334;21.936;2023-02-24T00:50:49;2.33;;;1.88;;
53835;SDS011;39737;43.334;21.936;2023-02-24T00:53:37;16.08;;;2.28;;
53835;SDS011;39737;43.334;21.936;2023-02-24T00:56:43;6.53;;;5.45;;
53835;SDS011;39737;43.334;21.936;2023-02-24T00:59:30;4.15;;;2.42;;
53835;SDS011;39737;43.334;21.936;2023-02-24T01:02:16;45.05;;;19.17;;
53835;SDS011;39737;43.334;21.936;2023-02-24T01:05:03;5.28;;;4.45;;
53835;SDS011;39737;43.334;21.936;2023-02-24T01:07:50;29.50;;;16.38;;
53835;SDS011;39737;43.334;21.936;2023-02-24T01:10:56;42.75;;;18.30;;
53835;SDS011;39737;43.334;21.936;2023-02-24T01:14:04;12.20;;;6.38;;
53835;SDS011;39737;43.334;21.936;2023-02-24T01:16:50;4.20;;;3.80;;
53835;SDS011;39737;43.334;21.936;2023-02-24T01:19:37;46.13;;;21.15;;
53835;SDS011;39737;43.334;21.936;2023-02-24T01:22:23;7.85;;;6.75;;
53835;SDS011;39737;43.334;21.936;2023-02-24T01:25:10;5.60;;;2.65;;
53835;SDS011;39737;43.334;21.936;2023-02-24T01:27:56;6.85;;;4.20;;
53835;SDS011;39737;43.334;21.936;2023-02-24T01:30:45;45.10;;;17.92;;
53835;SDS011;39737;43.334;21.936;2023-02-24T01:33:32;3.70;;;3.30;;
53835;SDS011;39737;43.334;21.936;2023-02-24T01:36:24;6.50;;;3.70;;
53835;SDS011;39737;43.334;21.936;2023-02-24T01:39:12;4.13;;;3.65;;
53835;SDS011;39737;43.334;21.936;2023-02-24T01:41:58;12.23;;;3.53;;
53835;SDS011;39737;43.334;21.936;2023-02-24T01:45:16;38.88;;;17.10;;
53835;SDS011;39737;43.334;21.936;2023-02-24T01:48:04;2.45;;;2.25;;
53835;SDS011;39737;43.334;21.936;2023-02-24T01:50:57;2.05;;;1.95;;
53835;SDS011;39737;43.334;21.936;2023-02-24T01:53:46;13.38;;;5.03;;
53835;SDS011;39737;43.334;21.936;2023-02-24T01:56:36;8.07;;;5.43;;
53835;SDS011;39737;43.334;21.936;2023-02-24T01:59:27;30.95;;;15.32;;
53835;SDS011;39737;43.334;21.936;2023-02-24T02:02:15;4.43;;;3.78;;
53835;SDS011;39737;43.334;21.936;2023-02-24T02:05:03;36.65;;;15.93;;
53835;SDS011;39737;43.334;21.936;2023-02-24T02:07:53;17.02;;;5.13;;
53835;SDS011;39737;43.334;21.936;2023-02-24T02:10:40;11.23;;;3.67;;
53835;SDS011;39737;43.334;21.936;2023-02-24T02:13:28;4.18;;;2.95;;
53835;SDS011;39737;43.334;21.936;2023-02-24T02:19:26;2.78;;;1.77;;
53835;SDS011;39737;43.334;21.936;2023-02-24T02:22:42;15.52;;;4.60;;
53835;SDS011;39737;43.334;21.936;2023-02-24T02:37:03;8.32;;;4.00;;
53835;SDS011;39737;43.334;21.936;2023-02-24T02:39:53;11.93;;;5.00;;
53835;SDS011;39737;43.334;21.936;2023-02-24T02:45:43;29.48;;;13.30;;
53835;SDS011;39737;43.334;21.936;2023-02-24T02:48:53;6.22;;;4.50;;
53835;SDS011;39737;43.334;21.936;2023-02-24T02:51:43;10.77;;;4.10;;
53835;SDS011;39737;43.334;21.936;2023-02-24T02:57:20;28.90;;;14.50;;
53835;SDS011;39737;43.334;21.936;2023-02-24T03:00:11;30.23;;;15.57;;
53835;SDS011;39737;43.334;21.936;2023-02-24T03:03:24;11.07;;;6.53;;
53835;SDS011;39737;43.334;21.936;2023-02-24T03:06:14;38.47;;;18.13;;
53835;SDS011;39737;43.334;21.936;2023-02-24T03:09:03;4.80;;;3.65;;
53835;SDS011;39737;43.334;21.936;2023-02-24T03:12:05;7.43;;;3.92;;
53835;SDS011;39737;43.334;21.936;2023-02-24T03:14:57;6.15;;;5.22;;
53835;SDS011;39737;43.334;21.936;2023-02-24T03:17:45;3.15;;;2.85;;
53835;SDS011;39737;43.334;21.936;2023-02-24T03:20:34;25.00;;;12.60;;
53835;SDS011;39737;43.334;21.936;2023-02-24T03:23:21;2.20;;;2.10;;
53835;SDS011;39737;43.334;21.936;2023-02-24T03:26:14;3.90;;;3.55;;
53835;SDS011;39737;43.334;21.936;2023-02-24T03:29:10;27.95;;;14.27;;
53835;SDS011;39737;43.334;21.936;2023-02-24T03:32:12;19.38;;;9.90;;
53835;SDS011;39737;43.334;21.936;2023-02-24T03:35:07;10.52;;;5.35;;
53835;SDS011;39737;43.334;21.936;2023-02-24T03:37:56;17.27;;;7.93;;
53835;SDS011;39737;43.334;21.936;2023-02-24T03:40:44;8.15;;;3.85;;
53835;SDS011;39737;43.334;21.936;2023-02-24T03:43:43;5.03;;;3.38;;
53835;SDS011;39737;43.334;21.936;2023-02-24T03:46:32;28.27;;;14.55;;
53835;SDS011;39737;43.334;21.936;2023-02-24T03:49:19;3.22;;;2.63;;
53835;SDS011;39737;43.334;21.936;2023-02-24T03:58:10;5.30;;;3.45;;
53835;SDS011;39737;43.334;21.936;2023-02-24T04:04:00;6.78;;;4.28;;
53835;SDS011;39737;43.334;21.936;2023-02-24T04:07:12;2.83;;;2.63;;
53835;SDS011;39737;43.334;21.936;2023-02-24T04:10:04;39.38;;;18.58;;
53835;SDS011;39737;43.334;21.936;2023-02-24T04:19:04;31.05;;;13.50;;
53835;SDS011;39737;43.334;21.936;2023-02-24T04:21:53;3.30;;;1.92;;
53835;SDS011;39737;43.334;21.936;2023-02-24T04:24:43;23.40;;;8.48;;
53835;SDS011;39737;43.334;21.936;2023-02-24T04:27:31;2.72;;;1.80;;
53835;SDS011;39737;43.334;21.936;2023-02-24T04:30:30;4.43;;;2.20;;
53835;SDS011;39737;43.334;21.936;2023-02-24T04:33:18;2.83;;;2.63;;
53835;SDS011;39737;43.334;21.936;2023-02-24T04:36:05;11.52;;;3.85;;
53835;SDS011;39737;43.334;21.936;2023-02-24T04:38:56;27.75;;;12.77;;
53835;SDS011;39737;43.334;21.936;2023-02-24T04:41:42;5.13;;;3.97;;
53835;SDS011;39737;43.334;21.936;2023-02-24T04:44:28;5.55;;;1.10;;
53835;SDS011;39737;43.334;21.936;2023-02-24T04:47:14;2.30;;;1.70;;
53835;SDS011;39737;43.334;21.936;2023-02-24T04:50:19;7.13;;;3.60;;
53835;SDS011;39737;43.334;21.936;2023-02-24T04:53:10;10.60;;;4.30;;
53835;SDS011;39737;43.334;21.936;2023-02-24T04:55:56;23.00;;;12.90;;
53835;SDS011;39737;43.334;21.936;2023-02-24T04:58:46;7.03;;;3.22;;
53835;SDS011;39737;43.334;21.936;2023-02-24T05:01:33;23.88;;;10.98;;
53835;SDS011;39737;43.334;21.936;2023-02-24T05:04:19;19.63;;;9.60;;
53835;SDS011;39737;43.334;21.936;2023-02-24T05:07:05;18.75;;;8.68;;
53835;SDS011;39737;43.334;21.936;2023-02-24T05:09:51;26.67;;;15.07;;
53835;SDS011;39737;43.334;21.936;2023-02-24T05:12:40;24.30;;;12.63;;
53835;SDS011;39737;43.334;21.936;2023-02-24T05:15:45;3.35;;;3.05;;
53835;SDS011;39737;43.334;21.936;2023-02-24T05:18:32;4.50;;;3.65;;
53835;SDS011;39737;43.334;21.936;2023-02-24T05:21:25;4.57;;;3.35;;
53835;SDS011;39737;43.334;21.936;2023-02-24T05:24:24;5.15;;;4.57;;
53835;SDS011;39737;43.334;21.936;2023-02-24T05:27:12;11.38;;;5.07;;
53835;SDS011;39737;43.334;21.936;2023-02-24T05:30:00;4.40;;;4.03;;
53835;SDS011;39737;43.334;21.936;2023-02-24T05:32:47;6.35;;;4.32;;
53835;SDS011;39737;43.334;21.936;2023-02-24T05:35:34;4.90;;;4.47;;
53835;SDS011;39737;43.334;21.936;2023-02-24T05:38:20;6.90;;;4.80;;
53835;SDS011;39737;43.334;21.936;2023-02-24T05:41:08;58.88;;;28.13;;
53835;SDS011;39737;43.334;21.936;2023-02-24T05:44:00;5.20;;;4.32;;
53835;SDS011;39737;43.334;21.936;2023-02-24T05:46:50;5.57;;;4.32;;
53835;SDS011;39737;43.334;21.936;2023-02-24T05:49:41;6.00;;;5.45;;
53835;SDS011;39737;43.334;21.936;2023-02-24T05:52:28;12.48;;;6.32;;
53835;SDS011;39737;43.334;21.936;2023-02-24T05:55:14;6.60;;;4.80;;
53835;SDS011;39737;43.334;21.936;2023-02-24T05:58:01;10.25;;;6.72;;
53835;SDS011;39737;43.334;21.936;2023-02-24T06:00:51;47.10;;;14.43;;
53835;SDS011;39737;43.334;21.936;2023-02-24T06:03:37;6.13;;;5.28;;
53835;SDS011;39737;43.334;21.936;2023-02-24T06:06:25;27.08;;;13.02;;
53835;SDS011;39737;43.334;21.936;2023-02-24T06:09:31;22.48;;;4.57;;
53835;SDS011;39737;43.334;21.936;2023-02-24T06:12:18;53.15;;;22.83;;
53835;SDS011;39737;43.334;21.936;2023-02-24T06:15:05;12.20;;;4.78;;
53835;SDS011;39737;43.334;21.936;2023-02-24T06:17:52;8.25;;;4.85;;
53835;SDS011;39737;43.334;21.936;2023-02-24T06:20:41;9.82;;;4.35;;
53835;SDS011;39737;43.334;21.936;2023-02-24T06:23:29;8.35;;;4.05;;
53835;SDS011;39737;43.334;21.936;2023-02-24T06:26:16;11.85;;;6.95;;
53835;SDS011;39737;43.334;21.936;2023-02-24T06:29:04;6.43;;;4.28;;
53835;SDS011;39737;43.334;21.936;2023-02-24T06:31:50;4.45;;;2.83;;
53835;SDS011;39737;43.334;21.936;2023-02-24T06:34:37;4.47;;;3.63;;
53835;SDS011;39737;43.334;21.936;2023-02-24T06:37:23;6.97;;;4.63;;
53835;SDS011;39737;43.334;21.936;2023-02-24T06:40:10;3.72;;;3.42;;
53835;SDS011;39737;43.334;21.936;2023-02-24T06:43:05;8.15;;;5.28;;
53835;SDS011;39737;43.334;21.936;2023-02-24T06:45:51;42.72;;;22.52;;
53835;SDS011;39737;43.334;21.936;2023-02-24T06:48:37;6.50;;;5.05;;
53835;SDS011;39737;43.334;21.936;2023-02-24T06:51:23;57.42;;;27.33;;
53835;SDS011;39737;43.334;21.936;2023-02-24T06:54:15;78.90;;;32.88;;
53835;SDS011;39737;43.334;21.936;2023-02-24T06:57:01;32.08;;;18.60;;
53835;SDS011;39737;43.334;21.936;2023-02-24T06:59:50;6.68;;;4.30;;
53835;SDS011;39737;43.334;21.936;2023-02-24T07:02:37;47.08;;;22.30;;
53835;SDS011;39737;43.334;21.936;2023-02-24T07:05:24;8.90;;;6.03;;
53835;SDS011;39737;43.334;21.936;2023-02-24T07:08:12;13.23;;;7.88;;
53835;SDS011;39737;43.334;21.936;2023-02-24T07:10:58;8.38;;;5.60;;
53835;SDS011;39737;43.334;21.936;2023-02-24T07:13:45;3.67;;;3.30;;
53835;SDS011;39737;43.334;21.936;2023-02-24T07:16:34;14.68;;;8.07;;
53835;SDS011;39737;43.334;21.936;2023-02-24T07:19:21;10.23;;;6.55;;
53835;SDS011;39737;43.334;21.936;2023-02-24T07:22:08;9.55;;;4.15;;
53835;SDS011;39737;43.334;21.936;2023-02-24T07:24:54;14.13;;;7.15;;
53835;SDS011;39737;43.334;21.936;2023-02-24T07:27:45;8.73;;;6.72;;
53835;SDS011;39737;43.334;21.936;2023-02-24T07:30:32;66.18;;;29.77;;
53835;SDS011;39737;43.334;21.936;2023-02-24T07:33:19;53.97;;;25.98;;
53835;SDS011;39737;43.334;21.936;2023-02-24T07:36:05;13.70;;;7.40;;
53835;SDS011;39737;43.334;21.936;2023-02-24T07:38:55;99.45;;;44.65;;
53835;SDS011;39737;43.334;21.936;2023-02-24T07:41:46;112.60;;;49.70;;
53835;SDS011;39737;43.334;21.936;2023-02-24T07:44:34;18.02;;;9.30;;
53835;SDS011;39737;43.334;21.936;2023-02-24T07:47:20;55.53;;;22.02;;
53835;SDS011;39737;43.334;21.936;2023-02-24T07:50:08;115.50;;;44.92;;
53835;SDS011;39737;43.334;21.936;2023-02-24T07:52:58;8.65;;;6.57;;
53835;SDS011;39737;43.334;21.936;2023-02-24T07:55:45;15.00;;;8.32;;
53835;SDS011;39737;43.334;21.936;2023-02-24T07:58:31;14.75;;;9.25;;
53835;SDS011;39737;43.334;21.936;2023-02-24T08:01:18;88.38;;;41.05;;
53835;SDS011;39737;43.334;21.936;2023-02-24T08:04:28;94.60;;;42.28;;
53835;SDS011;39737;43.334;21.936;2023-02-24T08:07:15;73.68;;;35.88;;
53835;SDS011;39737;43.334;21.936;2023-02-24T08:10:01;62.05;;;30.42;;
53835;SDS011;39737;43.334;21.936;2023-02-24T08:13:09;62.95;;;31.92;;
53835;SDS011;39737;43.334;21.936;2023-02-24T08:15:56;51.17;;;25.15;;
53835;SDS011;39737;43.334;21.936;2023-02-24T08:18:42;74.20;;;38.08;;
53835;SDS011;39737;43.334;21.936;2023-02-24T08:21:33;60.35;;;26.35;;
53835;SDS011;39737;43.334;21.936;2023-02-24T08:24:29;63.53;;;33.15;;
53835;SDS011;39737;43.334;21.936;2023-02-24T08:27:19;58.05;;;28.77;;
53835;SDS011;39737;43.334;21.936;2023-02-24T08:30:06;70.28;;;33.33;;
53835;SDS011;39737;43.334;21.936;2023-02-24T08:32:53;73.60;;;36.22;;
53835;SDS011;39737;43.334;21.936;2023-02-24T08:35:43;9.18;;;6.30;;
53835;SDS011;39737;43.334;21.936;2023-02-24T08:38:33;20.02;;;8.23;;
53835;SDS011;39737;43.334;21.936;2023-02-24T08:41:27;61.28;;;33.25;;
53835;SDS011;39737;43.334;21.936;2023-02-24T08:44:32;15.30;;;9.68;;
53835;SDS011;39737;43.334;21.936;2023-02-24T08:47:19;54.13;;;25.80;;
53835;SDS011;39737;43.334;21.936;2023-02-24T08:50:08;58.05;;;25.52;;
53835;SDS011;39737;43.334;21.936;2023-02-24T08:52:58;106.65;;;42.70;;
53835;SDS011;39737;43.334;21.936;2023-02-24T08:55:46;60.33;;;26.85;;
53835;SDS011;39737;43.334;21.936;2023-02-24T08:58:40;66.43;;;28.70;;
53835;SDS011;39737;43.334;21.936;2023-02-24T09:01:36;98.95;;;47.28;;
53835;SDS011;39737;43.334;21.936;2023-02-24T09:04:23;68.43;;;31.20;;
53835;SDS011;39737;43.334;21.936;2023-02-24T09:07:17;61.80;;;30.15;;
53835;SDS011;39737;43.334;21.936;2023-02-24T09:10:04;63.20;;;31.42;;
53835;SDS011;39737;43.334;21.936;2023-02-24T09:12:50;53.97;;;24.42;;
53835;SDS011;39737;43.334;21.936;2023-02-24T09:15:38;54.83;;;24.73;;
53835;SDS011;39737;43.334;21.936;2023-02-24T09:18:27;75.47;;;33.95;;
53835;SDS011;39737;43.334;21.936;2023-02-24T09:21:23;44.42;;;22.67;;
53835;SDS011;39737;43.334;21.936;2023-02-24T09:24:28;50.83;;;22.27;;
53835;SDS011;39737;43.334;21.936;2023-02-24T09:27:16;46.67;;;23.98;;
53835;SDS011;39737;43.334;21.936;2023-02-24T09:30:02;44.28;;;22.05;;
53835;SDS011;39737;43.334;21.936;2023-02-24T09:32:55;44.05;;;22.90;;
53835;SDS011;39737;43.334;21.936;2023-02-24T09:41:50;46.15;;;20.90;;
53835;SDS011;39737;43.334;21.936;2023-02-24T09:45:00;53.28;;;24.48;;
53835;SDS011;39737;43.334;21.936;2023-02-24T09:47:47;44.65;;;23.40;;
53835;SDS011;39737;43.334;21.936;2023-02-24T09:50:39;51.50;;;25.08;;
53835;SDS011;39737;43.334;21.936;2023-02-24T09:53:48;44.47;;;19.38;;
53835;SDS011;39737;43.334;21.936;2023-02-24T09:56:37;39.33;;;17.85;;
53835;SDS011;39737;43.334;21.936;2023-02-24T09:59:30;32.65;;;16.52;;
53835;SDS011;39737;43.334;21.936;2023-02-24T10:02:41;35.15;;;16.15;;
53835;SDS011;39737;43.334;21.936;2023-02-24T10:05:35;25.85;;;12.98;;
53835;SDS011;39737;43.334;21.936;2023-02-24T10:08:34;28.02;;;13.40;;
53835;SDS011;39737;43.334;21.936;2023-02-24T10:11:23;25.25;;;14.48;;
53835;SDS011;39737;43.334;21.936;2023-02-24T10:14:24;32.00;;;15.40;;
53835;SDS011;39737;43.334;21.936;2023-02-24T10:17:28;37.60;;;18.98;;
53835;SDS011;39737;43.334;21.936;2023-02-24T10:20:29;31.17;;;16.45;;
53835;SDS011;39737;43.334;21.936;2023-02-24T10:23:33;35.65;;;16.27;;
53835;SDS011;39737;43.334;21.936;2023-02-24T10:32:49;25.48;;;13.07;;
53835;SDS011;39737;43.334;21.936;2023-02-24T10:35:37;25.98;;;13.50;;
53835;SDS011;39737;43.334;21.936;2023-02-24T10:38:24;22.42;;;12.13;;
53835;SDS011;39737;43.334;21.936;2023-02-24T10:41:13;25.15;;;13.13;;
53835;SDS011;39737;43.334;21.936;2023-02-24T10:44:00;22.35;;;12.60;;
53835;SDS011;39737;43.334;21.936;2023-02-24T10:47:03;22.65;;;11.68;;
53835;SDS011;39737;43.334;21.936;2023-02-24T10:50:00;31.23;;;13.00;;
53835;SDS011;39737;43.334;21.936;2023-02-24T10:52:47;35.95;;;17.23;;
53835;SDS011;39737;43.334;21.936;2023-02-24T10:55:57;26.88;;;14.13;;
53835;SDS011;39737;43.334;21.936;2023-02-24T10:59:11;24.88;;;12.38;;
53835;SDS011;39737;43.334;21.936;2023-02-24T11:02:37;29.70;;;15.13;;
53835;SDS011;39737;43.334;21.936;2023-02-24T11:05:51;24.98;;;11.88;;
53835;SDS011;39737;43.334;21.936;2023-02-24T11:08:55;34.05;;;18.40;;
53835;SDS011;39737;43.334;21.936;2023-02-24T11:12:13;30.15;;;14.50;;
53835;SDS011;39737;43.334;21.936;2023-02-24T11:15:23;23.83;;;11.00;;
53835;SDS011;39737;43.334;21.936;2023-02-24T11:18:29;24.88;;;11.70;;
53835;SDS011;39737;43.334;21.936;2023-02-24T11:21:16;19.42;;;10.13;;
53835;SDS011;39737;43.334;21.936;2023-02-24T11:24:12;19.58;;;10.55;;
53835;SDS011;39737;43.334;21.936;2023-02-24T11:27:02;22.13;;;10.88;;
53835;SDS011;39737;43.334;21.936;2023-02-24T11:35:32;17.63;;;10.75;;
53835;SDS011;39737;43.334;21.936;2023-02-24T11:41:26;17.05;;;9.23;;
53835;SDS011;39737;43.334;21.936;2023-02-24T11:44:17;18.52;;;10.02;;
53835;SDS011;39737;43.334;21.936;2023-02-24T11:47:10;22.20;;;9.18;;
53835;SDS011;39737;43.334;21.936;2023-02-24T11:53:04;12.95;;;7.32;;
53835;SDS011;39737;43.334;21.936;2023-02-24T11:56:00;14.40;;;6.43;;
53835;SDS011;39737;43.334;21.936;2023-02-24T11:59:04;17.98;;;7.03;;
53835;SDS011;39737;43.334;21.936;2023-02-24T12:01:54;10.73;;;6.22;;
53835;SDS011;39737;43.334;21.936;2023-02-24T12:04:50;14.38;;;8.05;;
53835;SDS011;39737;43.334;21.936;2023-02-24T12:07:40;18.27;;;7.25;;
53835;SDS011;39737;43.334;21.936;2023-02-24T12:10:28;16.08;;;6.93;;
53835;SDS011;39737;43.334;21.936;2023-02-24T12:13:18;17.23;;;6.45;;
53835;SDS011;39737;43.334;21.936;2023-02-24T12:16:09;14.02;;;6.95;;
53835;SDS011;39737;43.334;21.936;2023-02-24T12:18:59;13.77;;;6.80;;
53835;SDS011;39737;43.334;21.936;2023-02-24T12:21:51;13.35;;;5.75;;
53835;SDS011;39737;43.334;21.936;2023-02-24T12:24:38;16.58;;;8.57;;
53835;SDS011;39737;43.334;21.936;2023-02-24T12:42:16;11.27;;;5.40;;
53835;SDS011;39737;43.334;21.936;2023-02-24T12:45:12;15.88;;;7.85;;
53835;SDS011;39737;43.334;21.936;2023-02-24T12:51:16;31.65;;;9.45;;
53835;SDS011;39737;43.334;21.936;2023-02-24T12:54:21;6.65;;;3.78;;
53835;SDS011;39737;43.334;21.936;2023-02-24T13:03:55;25.90;;;9.30;;
53835;SDS011;39737;43.334;21.936;2023-02-24T13:15:26;9.45;;;3.65;;
53835;SDS011;39737;43.334;21.936;2023-02-24T13:18:21;11.80;;;3.92;;
53835;SDS011;39737;43.334;21.936;2023-02-24T13:23:57;13.15;;;3.83;;
53835;SDS011;39737;43.334;21.936;2023-02-24T13:26:45;11.57;;;4.10;;
53835;SDS011;39737;43.334;21.936;2023-02-24T13:29:41;23.45;;;4.28;;
53835;SDS011;39737;43.334;21.936;2023-02-24T13:38:08;10.80;;;4.10;;
53835;SDS011;39737;43.334;21.936;2023-02-24T13:41:04;13.25;;;6.53;;
53835;SDS011;39737;43.334;21.936;2023-02-24T13:43:58;14.07;;;5.25;;
53835;SDS011;39737;43.334;21.936;2023-02-24T13:49:42;25.95;;;10.32;;
53835;SDS011;39737;43.334;21.936;2023-02-24T13:58:37;27.05;;;11.82;;
53835;SDS011;39737;43.334;21.936;2023-02-24T14:01:26;10.43;;;3.83;;
53835;SDS011;39737;43.334;21.936;2023-02-24T14:04:16;9.90;;;4.78;;
53835;SDS011;39737;43.334;21.936;2023-02-24T14:07:16;12.02;;;5.20;;
53835;SDS011;39737;43.334;21.936;2023-02-24T14:10:13;22.77;;;8.70;;
53835;SDS011;39737;43.334;21.936;2023-02-24T14:15:46;28.08;;;9.80;;
53835;SDS011;39737;43.334;21.936;2023-02-24T14:18:32;42.47;;;18.58;;
53835;SDS011;39737;43.334;21.936;2023-02-24T14:21:19;13.23;;;6.55;;
53835;SDS011;39737;43.334;21.936;2023-02-24T14:24:11;27.65;;;9.02;;
53835;SDS011;39737;43.334;21.936;2023-02-24T14:26:57;19.20;;;6.10;;
53835;SDS011;39737;43.334;21.936;2023-02-24T14:29:44;27.38;;;10.35;;
53835;SDS011;39737;43.334;21.936;2023-02-24T14:32:31;60.75;;;26.00;;
53835;SDS011;39737;43.334;21.936;2023-02-24T14:35:18;22.08;;;10.15;;
53835;SDS011;39737;43.334;21.936;2023-02-24T14:38:05;32.55;;;13.75;;
53835;SDS011;39737;43.334;21.936;2023-02-24T14:40:51;23.90;;;13.48;;
53835;SDS011;39737;43.334;21.936;2023-02-24T14:43:41;16.52;;;7.82;;
53835;SDS011;39737;43.334;21.936;2023-02-24T14:46:27;19.60;;;9.73;;
53835;SDS011;39737;43.334;21.936;2023-02-24T14:49:16;23.70;;;12.27;;
53835;SDS011;39737;43.334;21.936;2023-02-24T14:58:18;37.83;;;14.20;;
53835;SDS011;39737;43.334;21.936;2023-02-24T15:01:05;43.50;;;18.40;;
53835;SDS011;39737;43.334;21.936;2023-02-24T15:04:00;75.97;;;30.08;;
53835;SDS011;39737;43.334;21.936;2023-02-24T15:06:54;59.70;;;19.95;;
53835;SDS011;39737;43.334;21.936;2023-02-24T15:09:41;35.92;;;13.70;;
53835;SDS011;39737;43.334;21.936;2023-02-24T15:12:43;28.23;;;12.80;;
53835;SDS011;39737;43.334;21.936;2023-02-24T15:15:33;53.33;;;22.42;;
53835;SDS011;39737;43.334;21.936;2023-02-24T15:18:25;46.67;;;19.92;;
53835;SDS011;39737;43.334;21.936;2023-02-24T15:21:19;37.20;;;16.40;;
53835;SDS011;39737;43.334;21.936;2023-02-24T15:27:00;25.63;;;12.00;;
53835;SDS011;39737;43.334;21.936;2023-02-24T15:29:57;34.33;;;14.70;;
53835;SDS011;39737;43.334;21.936;2023-02-24T15:32:47;51.33;;;23.25;;
53835;SDS011;39737;43.334;21.936;2023-02-24T15:35:37;89.22;;;38.75;;
53835;SDS011;39737;43.334;21.936;2023-02-24T15:38:31;83.07;;;37.38;;
53835;SDS011;39737;43.334;21.936;2023-02-24T15:41:19;48.70;;;21.30;;
53835;SDS011;39737;43.334;21.936;2023-02-24T15:44:05;39.22;;;18.02;;
53835;SDS011;39737;43.334;21.936;2023-02-24T15:46:51;44.25;;;21.80;;
53835;SDS011;39737;43.334;21.936;2023-02-24T15:49:38;51.55;;;20.15;;
53835;SDS011;39737;43.334;21.936;2023-02-24T15:52:26;46.03;;;23.10;;
53835;SDS011;39737;43.334;21.936;2023-02-24T15:55:18;51.42;;;25.67;;
53835;SDS011;39737;43.334;21.936;2023-02-24T15:58:05;75.70;;;32.40;;
53835;SDS011;39737;43.334;21.936;2023-02-24T16:00:51;88.65;;;31.67;;
53835;SDS011;39737;43.334;21.936;2023-02-24T16:03:39;65.35;;;29.85;;
53835;SDS011;39737;43.334;21.936;2023-02-24T16:06:25;71.47;;;30.92;;
53835;SDS011;39737;43.334;21.936;2023-02-24T16:09:15;90.43;;;32.60;;
53835;SDS011;39737;43.334;21.936;2023-02-24T16:12:04;71.75;;;31.45;;
53835;SDS011;39737;43.334;21.936;2023-02-24T16:14:51;59.35;;;25.70;;
53835;SDS011;39737;43.334;21.936;2023-02-24T16:17:48;62.42;;;26.20;;
53835;SDS011;39737;43.334;21.936;2023-02-24T16:20:38;51.80;;;19.30;;
53835;SDS011;39737;43.334;21.936;2023-02-24T16:23:25;39.97;;;14.57;;
53835;SDS011;39737;43.334;21.936;2023-02-24T16:26:16;26.65;;;11.63;;
53835;SDS011;39737;43.334;21.936;2023-02-24T16:29:03;19.98;;;8.60;;
53835;SDS011;39737;43.334;21.936;2023-02-24T16:31:49;23.92;;;10.30;;
53835;SDS011;39737;43.334;21.936;2023-02-24T16:34:36;21.52;;;10.55;;
53835;SDS011;39737;43.334;21.936;2023-02-24T16:37:24;37.67;;;12.80;;
53835;SDS011;39737;43.334;21.936;2023-02-24T16:40:32;43.63;;;13.60;;
53835;SDS011;39737;43.334;21.936;2023-02-24T16:43:22;42.42;;;19.70;;
53835;SDS011;39737;43.334;21.936;2023-02-24T16:46:13;34.80;;;16.02;;
53835;SDS011;39737;43.334;21.936;2023-02-24T16:49:00;39.30;;;18.67;;
53835;SDS011;39737;43.334;21.936;2023-02-24T16:51:47;27.15;;;11.38;;
53835;SDS011;39737;43.334;21.936;2023-02-24T16:54:33;26.65;;;11.02;;
53835;SDS011;39737;43.334;21.936;2023-02-24T16:57:20;27.13;;;10.88;;
53835;SDS011;39737;43.334;21.936;2023-02-24T17:00:29;27.90;;;11.38;;
53835;SDS011;39737;43.334;21.936;2023-02-24T17:03:19;24.15;;;12.32;;
53835;SDS011;39737;43.334;21.936;2023-02-24T17:06:10;29.13;;;13.05;;
53835;SDS011;39737;43.334;21.936;2023-02-24T17:09:15;36.30;;;13.80;;
53835;SDS011;39737;43.334;21.936;2023-02-24T17:12:03;31.65;;;13.95;;
53835;SDS011;39737;43.334;21.936;2023-02-24T17:14:49;40.00;;;18.35;;
53835;SDS011;39737;43.334;21.936;2023-02-24T17:17:35;36.47;;;18.30;;
53835;SDS011;39737;43.334;21.936;2023-02-24T17:20:22;44.10;;;18.58;;
53835;SDS011;39737;43.334;21.936;2023-02-24T17:23:09;44.90;;;19.15;;
53835;SDS011;39737;43.334;21.936;2023-02-24T17:25:57;28.65;;;14.20;;
53835;SDS011;39737;43.334;21.936;2023-02-24T17:28:45;31.05;;;12.30;;
53835;SDS011;39737;43.334;21.936;2023-02-24T17:31:32;27.13;;;12.15;;
53835;SDS011;39737;43.334;21.936;2023-02-24T17:34:19;27.65;;;12.60;;
53835;SDS011;39737;43.334;21.936;2023-02-24T17:37:08;28.73;;;13.77;;
53835;SDS011;39737;43.334;21.936;2023-02-24T17:39:55;26.20;;;12.70;;
53835;SDS011;39737;43.334;21.936;2023-02-24T17:42:42;38.17;;;14.85;;
53835;SDS011;39737;43.334;21.936;2023-02-24T17:45:28;29.10;;;12.77;;
53835;SDS011;39737;43.334;21.936;2023-02-24T17:48:14;33.28;;;13.02;;
53835;SDS011;39737;43.334;21.936;2023-02-24T17:51:01;37.08;;;15.38;;
53835;SDS011;39737;43.334;21.936;2023-02-24T17:53:47;37.92;;;16.35;;
53835;SDS011;39737;43.334;21.936;2023-02-24T17:56:34;29.73;;;16.35;;
53835;SDS011;39737;43.334;21.936;2023-02-24T17:59:20;31.30;;;13.98;;
53835;SDS011;39737;43.334;21.936;2023-02-24T18:02:08;38.88;;;17.50;;
53835;SDS011;39737;43.334;21.936;2023-02-24T18:04:54;39.28;;;15.65;;
53835;SDS011;39737;43.334;21.936;2023-02-24T18:07:41;37.40;;;14.98;;
53835;SDS011;39737;43.334;21.936;2023-02-24T18:10:28;67.32;;;27.30;;
53835;SDS011;39737;43.334;21.936;2023-02-24T18:13:14;58.63;;;27.02;;
53835;SDS011;39737;43.334;21.936;2023-02-24T18:16:00;78.22;;;33.10;;
53835;SDS011;39737;43.334;21.936;2023-02-24T18:18:46;114.88;;;49.17;;
53835;SDS011;39737;43.334;21.936;2023-02-24T18:21:32;108.32;;;46.45;;
53835;SDS011;39737;43.334;21.936;2023-02-24T18:24:19;108.00;;;43.67;;
53835;SDS011;39737;43.334;21.936;2023-02-24T18:27:07;129.68;;;49.58;;
53835;SDS011;39737;43.334;21.936;2023-02-24T18:29:54;150.80;;;58.15;;
53835;SDS011;39737;43.334;21.936;2023-02-24T18:32:40;106.07;;;42.42;;
53835;SDS011;39737;43.334;21.936;2023-02-24T18:35:29;92.38;;;36.30;;
53835;SDS011;39737;43.334;21.936;2023-02-24T18:38:15;80.72;;;32.50;;